Time;durP1;ratioP1;P1;durP2;ratioP2;P2;SDS_P1;SDS_P2;PMS_P1;PMS_P2;Temp;Humidity;BMP_temperature;BMP_pressure;BME280_temperature;BME280_humidity;BME280_pressure;Samples;Min_cycle;Max_cycle;Signal;HPM_P1;HPM_P2
2021/09/28 00:00:28;;;;;;;19.55;9.07;;;;;;;12.15;100.00;101635.91;4948153;28;20047;-86
2021/09/28 00:02:54;;;;;;;17.23;9.25;;;;;;;12.18;100.00;101640.97;4948974;28;20053;-86
2021/09/28 00:05:19;;;;;;;14.88;9.32;;;;;;;12.15;100.00;101630.53;4948692;28;20398;-86
2021/09/28 00:07:45;;;;;;;14.80;9.73;;;;;;;12.17;100.00;101627.69;4934605;28;20047;-86
2021/09/28 00:10:11;;;;;;;19.17;10.80;;;;;;;12.18;100.00;101637.44;4928208;29;20067;-85
2021/09/28 00:12:36;;;;;;;17.25;10.77;;;;;;;12.16;100.00;101634.91;4938764;28;20065;-86
2021/09/28 00:15:03;;;;;;;18.23;11.02;;;;;;;12.09;100.00;101644.59;4947781;28;20090;-86
2021/09/28 00:17:28;;;;;;;17.15;11.48;;;;;;;12.07;100.00;101643.91;4947963;28;20047;-86
2021/09/28 00:19:54;;;;;;;22.50;12.13;;;;;;;12.09;100.00;101644.59;4947919;28;20047;-85
2021/09/28 00:22:19;;;;;;;16.60;10.80;;;;;;;12.02;100.00;101645.34;4948230;28;20406;-86
2021/09/28 00:24:44;;;;;;;18.13;9.65;;;;;;;11.96;100.00;101644.13;4947264;28;20125;-87
2021/09/28 00:27:10;;;;;;;19.42;10.27;;;;;;;11.92;100.00;101646.28;4948473;28;20035;-86
2021/09/28 00:29:35;;;;;;;15.35;9.88;;;;;;;11.85;100.00;101645.19;4947196;28;20059;-85
2021/09/28 00:32:01;;;;;;;21.63;11.73;;;;;;;11.83;100.00;101649.84;4928233;29;20052;-86
2021/09/28 00:34:26;;;;;;;14.95;10.77;;;;;;;11.81;100.00;101648.31;4928825;28;20195;-86
2021/09/28 00:36:52;;;;;;;21.48;11.02;;;;;;;11.78;100.00;101652.16;4928612;28;20110;-86
2021/09/28 00:39:17;;;;;;;14.32;10.48;;;;;;;11.73;100.00;101651.75;4928369;28;20043;-85
2021/09/28 00:41:42;;;;;;;18.95;12.93;;;;;;;11.68;100.00;101656.72;4929849;28;20052;-86
2021/09/28 00:44:08;;;;;;;19.95;14.50;;;;;;;11.68;100.00;101654.91;4929603;28;20054;-85
2021/09/28 00:46:33;;;;;;;20.83;14.07;;;;;;;11.69;100.00;101653.91;4944555;28;20047;-86
2021/09/28 00:48:59;;;;;;;21.08;14.25;;;;;;;11.69;100.00;101653.91;4941016;28;20047;-87
2021/09/28 00:51:25;;;;;;;21.70;15.30;;;;;;;11.65;100.00;101659.72;4946402;28;20043;-86
2021/09/28 00:53:52;;;;;;;20.27;13.55;;;;;;;11.69;100.00;101666.50;4941573;28;20457;-85
2021/09/28 00:56:20;;;;;;;22.83;13.98;;;;;;;11.65;100.00;101659.72;4947203;28;20047;-87
2021/09/28 00:58:45;;;;;;;23.08;14.27;;;;;;;11.63;100.00;101669.78;4948043;28;20071;-86
2021/09/28 01:01:14;;;;;;;27.33;15.48;;;;;;;11.63;100.00;101667.09;4928969;28;20094;-86
2021/09/28 01:03:40;;;;;;;22.50;15.27;;;;;;;11.63;100.00;101672.47;4933361;28;20079;-86
2021/09/28 01:06:06;;;;;;;22.38;14.85;;;;;;;11.61;100.00;101666.41;4948044;28;20091;-86
2021/09/28 01:08:32;;;;;;;22.45;15.18;;;;;;;11.62;100.00;101670.78;4945097;28;20140;-86
2021/09/28 01:10:57;;;;;;;23.60;13.80;;;;;;;11.57;100.00;101675.78;4941345;28;20050;-87
2021/09/28 01:13:24;;;;;;;20.60;13.10;;;;;;;11.52;100.00;101677.03;4945288;28;20379;-87
2021/09/28 01:15:59;;;;;;;22.08;12.35;;;;;;;11.54;100.00;101671.53;4940897;28;20051;-86
2021/09/28 01:18:29;;;;;;;21.63;13.55;;;;;;;11.53;100.00;101670.66;4946971;28;20047;-86
2021/09/28 01:20:55;;;;;;;24.88;13.85;;;;;;;11.50;100.00;101668.28;4941594;28;20126;-86
2021/09/28 01:23:21;;;;;;;21.10;12.75;;;;;;;11.48;100.00;101672.13;4944622;28;20079;-87
2021/09/28 01:25:46;;;;;;;22.05;12.48;;;;;;;11.50;100.00;101670.13;4939352;28;20130;-86
2021/09/28 01:28:12;;;;;;;24.90;14.68;;;;;;;11.50;100.00;101670.97;4922839;29;20121;-86
2021/09/28 01:30:37;;;;;;;21.67;13.80;;;;;;;11.48;100.00;101670.28;4946707;28;20086;-86
2021/09/28 01:33:03;;;;;;;20.63;13.50;;;;;;;11.45;100.00;101677.78;4940261;28;20100;-86
2021/09/28 01:35:29;;;;;;;19.92;12.50;;;;;;;11.42;100.00;101680.75;4944735;28;20047;-87
2021/09/28 01:37:56;;;;;;;19.25;12.60;;;;;;;11.40;100.00;101680.94;4946667;28;20473;-86
2021/09/28 01:40:22;;;;;;;19.10;12.80;;;;;;;11.35;100.00;101677.00;4946828;28;20044;-86
2021/09/28 01:42:47;;;;;;;20.27;13.23;;;;;;;11.34;100.00;101675.31;4947396;28;20050;-86
2021/09/28 01:45:12;;;;;;;20.90;13.27;;;;;;;11.27;100.00;101672.34;4939739;28;20481;-86
2021/09/28 01:47:39;;;;;;;21.50;13.57;;;;;;;11.27;100.00;101675.03;4945136;28;20055;-88
2021/09/28 01:50:05;;;;;;;25.88;14.30;;;;;;;11.24;100.00;101673.47;4940745;28;20111;-86
2021/09/28 01:52:33;;;;;;;19.85;13.18;;;;;;;11.22;100.00;101671.94;4945003;28;20078;-86
2021/09/28 01:54:59;;;;;;;20.95;13.40;;;;;;;11.20;100.00;101674.78;4941470;28;20055;-86
2021/09/28 01:57:24;;;;;;;23.20;13.15;;;;;;;11.15;100.00;101673.53;4923830;28;20060;-87
2021/09/28 01:59:49;;;;;;;24.27;13.63;;;;;;;11.19;100.00;101678.47;4924118;28;20070;-86
2021/09/28 02:02:15;;;;;;;24.45;12.93;;;;;;;11.19;100.00;101674.91;4923739;28;20264;-86
2021/09/28 02:04:40;;;;;;;19.52;13.95;;;;;;;11.14;100.00;101686.13;4923358;28;20147;-86
2021/09/28 02:07:05;;;;;;;21.02;11.07;;;;;;;11.17;100.00;101690.34;4924886;28;20052;-86
2021/09/28 02:09:31;;;;;;;17.10;12.50;;;;;;;11.14;100.00;101682.59;4922535;29;20080;-86
2021/09/28 02:11:56;;;;;;;20.52;12.23;;;;;;;11.11;100.00;101685.56;4923314;28;20071;-87
2021/09/28 02:14:26;;;;;;;20.25;12.27;;;;;;;11.07;100.00;101685.84;4921592;28;20711;-86
2021/09/28 02:16:53;;;;;;;20.20;12.68;;;;;;;11.06;100.00;101686.84;4938136;28;20055;-86
2021/09/28 02:19:18;;;;;;;19.23;12.30;;;;;;;11.06;100.00;101697.59;4925751;28;20054;-86
2021/09/28 02:21:43;;;;;;;21.48;12.20;;;;;;;11.04;100.00;101686.13;4940574;28;20043;-86
2021/09/28 02:24:10;;;;;;;21.80;12.40;;;;;;;11.05;100.00;101698.59;4932269;28;20062;-87
2021/09/28 02:26:36;;;;;;;23.60;13.07;;;;;;;11.02;100.00;101695.34;4943378;28;20405;-86
2021/09/28 02:29:02;;;;;;;27.17;13.65;;;;;;;11.00;100.00;101698.16;4926179;28;20056;-86
2021/09/28 02:31:27;;;;;;;19.05;13.05;;;;;;;10.98;100.00;101689.41;4940378;28;20054;-86
2021/09/28 02:33:52;;;;;;;20.75;12.73;;;;;;;10.97;100.00;101695.78;4918678;29;20047;-86
2021/09/28 02:36:18;;;;;;;22.60;12.68;;;;;;;10.97;100.00;101697.63;4924339;28;20086;-85
2021/09/28 02:38:43;;;;;;;20.25;12.32;;;;;;;10.98;100.00;101693.94;4942263;28;20475;-86
2021/09/28 02:41:09;;;;;;;21.95;11.98;;;;;;;11.00;100.00;101695.47;4936331;28;20131;-86
2021/09/28 02:43:34;;;;;;;18.20;11.45;;;;;;;10.96;100.00;101693.22;4939846;28;20047;-86
2021/09/28 02:46:00;;;;;;;25.95;12.20;;;;;;;10.99;100.00;101696.47;4939296;28;20055;-86
2021/09/28 02:48:26;;;;;;;24.77;12.80;;;;;;;11.02;100.00;101695.34;4942798;28;20449;-86
2021/09/28 02:50:51;;;;;;;24.08;12.10;;;;;;;11.00;100.00;101700.84;4906227;29;20130;-87
2021/09/28 02:53:17;;;;;;;18.40;10.40;;;;;;;10.99;100.00;101699.16;4917050;28;20078;-87
2021/09/28 02:55:42;;;;;;;18.83;10.98;;;;;;;10.95;100.00;101705.81;4942976;28;20062;-87
2021/09/28 02:58:08;;;;;;;18.70;10.35;;;;;;;10.92;100.00;101705.25;4944287;28;20058;-87
2021/09/28 03:00:33;;;;;;;21.15;10.35;;;;;;;10.90;100.00;101710.75;4923780;29;20051;-87
2021/09/28 03:03:00;;;;;;;20.48;11.80;;;;;;;10.92;100.00;101703.41;4929959;28;20062;-88
2021/09/28 03:05:25;;;;;;;22.65;12.68;;;;;;;10.95;100.00;101708.50;4932082;28;20050;-88
2021/09/28 03:07:51;;;;;;;20.55;12.43;;;;;;;10.97;100.00;101698.47;4938643;28;20043;-88
2021/09/28 03:10:16;;;;;;;24.83;12.48;;;;;;;10.98;100.00;101712.72;4934786;28;20059;-87
2021/09/28 03:12:41;;;;;;;22.77;12.80;;;;;;;10.97;100.00;101709.19;4932838;28;20056;-87
2021/09/28 03:15:07;;;;;;;21.30;11.52;;;;;;;10.95;100.00;101711.16;4933703;28;20058;-87
2021/09/28 03:17:32;;;;;;;18.50;11.50;;;;;;;10.96;100.00;101714.69;4939491;28;20472;-87
2021/09/28 03:19:58;;;;;;;19.40;10.70;;;;;;;10.95;100.00;101710.34;4935534;28;20051;-87
2021/09/28 03:22:23;;;;;;;22.35;10.85;;;;;;;10.95;100.00;101708.50;4943038;28;20210;-87
2021/09/28 03:24:49;;;;;;;19.42;10.68;;;;;;;10.96;100.00;101714.69;4939166;28;20050;-87
2021/09/28 03:27:14;;;;;;;18.33;10.93;;;;;;;10.94;100.00;101716.72;4924232;28;20035;-88
2021/09/28 03:29:39;;;;;;;19.40;10.45;;;;;;;10.90;100.00;101713.44;4929189;28;20119;-86
2021/09/28 03:32:06;;;;;;;22.33;9.65;;;;;;;10.92;100.00;101718.69;4931743;28;20443;-87
2021/09/28 03:34:31;;;;;;;19.13;9.85;;;;;;;10.89;100.00;101719.81;4923530;29;20054;-87
2021/09/28 03:36:56;;;;;;;15.80;9.43;;;;;;;10.86;100.00;101716.56;4922822;29;20063;-86
2021/09/28 03:39:22;;;;;;;18.05;9.55;;;;;;;10.83;100.00;101723.91;4925831;29;20066;-86
2021/09/28 03:41:48;;;;;;;23.17;11.15;;;;;;;10.80;100.00;101726.88;4925799;29;20052;-87
2021/09/28 03:44:14;;;;;;;18.65;9.98;;;;;;;10.84;100.00;101722.06;4926856;29;20065;-87
2021/09/28 03:46:40;;;;;;;21.67;11.25;;;;;;;10.81;100.00;101725.88;4928689;28;20067;-86
2021/09/28 03:49:05;;;;;;;20.73;10.18;;;;;;;10.78;100.00;101728.00;4935079;28;20102;-86
2021/09/28 03:51:30;;;;;;;19.08;9.50;;;;;;;10.74;100.00;101723.94;4931193;28;20043;-87
2021/09/28 03:53:56;;;;;;;16.90;10.05;;;;;;;10.78;100.00;101728.00;4924599;29;20681;-87
2021/09/28 03:56:21;;;;;;;21.75;10.35;;;;;;;10.79;100.00;101732.41;4924985;28;20052;-87
2021/09/28 03:58:47;;;;;;;17.92;10.05;;;;;;;10.79;100.00;101735.09;4926488;29;20052;-86
2021/09/28 04:01:13;;;;;;;18.20;9.45;;;;;;;10.78;100.00;101736.06;4925132;29;20446;-87
2021/09/28 04:03:42;;;;;;;19.27;9.85;;;;;;;10.74;100.00;101740.88;4938473;29;20067;-87
2021/09/28 04:06:08;;;;;;;15.52;9.23;;;;;;;10.72;100.00;101733.97;4931387;29;20469;-87
2021/09/28 04:08:34;;;;;;;17.23;9.65;;;;;;;10.71;100.00;101734.97;4935402;28;20102;-86
2021/09/28 04:10:59;;;;;;;18.35;9.57;;;;;;;10.68;100.00;101740.63;4933459;29;20505;-87
2021/09/28 04:13:24;;;;;;;19.48;9.40;;;;;;;10.67;100.00;101746.97;4936924;28;20516;-87
2021/09/28 04:15:52;;;;;;;21.17;9.95;;;;;;;10.67;100.00;101744.28;4936921;28;20704;-87
2021/09/28 04:18:17;;;;;;;17.27;9.50;;;;;;;10.66;100.00;101745.28;4937660;28;20394;-87
2021/09/28 04:20:44;;;;;;;23.13;9.70;;;;;;;10.65;100.00;101743.59;4932319;28;20051;-87
2021/09/28 04:23:11;;;;;;;20.95;8.82;;;;;;;10.59;100.00;101742.31;4932014;28;20051;-86
2021/09/28 04:25:36;;;;;;;17.27;9.05;;;;;;;10.54;100.00;101748.09;4939808;28;20051;-87
2021/09/28 04:28:02;;;;;;;23.60;9.65;;;;;;;10.55;100.00;101749.78;4934317;28;20399;-86
2021/09/28 04:30:27;;;;;;;19.10;9.40;;;;;;;10.54;100.00;101753.47;4945528;28;20111;-86
2021/09/28 04:32:53;;;;;;;19.75;9.82;;;;;;;10.51;100.00;101758.28;4944581;28;20494;-87
2021/09/28 04:35:18;;;;;;;22.48;9.60;;;;;;;10.47;100.00;101757.72;4936729;28;20047;-86
2021/09/28 04:37:44;;;;;;;20.05;9.35;;;;;;;10.49;100.00;101757.56;4931048;28;20062;-86
2021/09/28 04:40:11;;;;;;;20.08;9.60;;;;;;;10.49;100.00;101766.44;4945973;28;20500;-86
2021/09/28 04:42:36;;;;;;;16.45;9.15;;;;;;;10.47;100.00;101770.25;4943381;28;20055;-86
2021/09/28 04:45:04;;;;;;;19.13;9.23;;;;;;;10.46;100.00;101766.72;4941827;28;20397;-86
2021/09/28 04:47:29;;;;;;;19.23;8.93;;;;;;;10.45;100.00;101770.41;4947772;28;20055;-86
2021/09/28 04:49:55;;;;;;;14.10;8.25;;;;;;;10.45;100.00;101772.25;4966412;28;20060;-86
2021/09/28 04:52:20;;;;;;;18.80;9.02;;;;;;;10.42;100.00;101770.69;4955917;28;20049;-85
2021/09/28 04:54:46;;;;;;;20.38;9.10;;;;;;;10.45;100.00;101774.94;4933765;28;20082;-86
2021/09/28 04:57:11;;;;;;;16.75;8.43;;;;;;;10.39;100.00;101770.97;4929895;28;20085;-86
2021/09/28 04:59:36;;;;;;;21.30;8.68;;;;;;;10.33;100.00;101784.94;4934353;28;20078;-86
2021/09/28 05:02:02;;;;;;;19.08;8.65;;;;;;;10.30;100.00;101777.16;4939557;28;20062;-87
2021/09/28 05:04:27;;;;;;;16.95;8.75;;;;;;;10.32;100.00;101784.06;4944511;28;20047;-85
2021/09/28 05:06:53;;;;;;;18.60;8.75;;;;;;;10.25;100.00;101782.91;4947323;28;20059;-86
2021/09/28 05:09:18;;;;;;;18.98;8.68;;;;;;;10.28;100.00;101785.34;4948609;28;20138;-87
2021/09/28 05:11:44;;;;;;;15.43;8.20;;;;;;;10.25;100.00;101793.63;4950334;28;20039;-85
2021/09/28 05:14:09;;;;;;;20.75;8.48;;;;;;;10.29;100.00;101787.03;4912560;29;20055;-86
2021/09/28 05:16:34;;;;;;;19.55;8.82;;;;;;;10.25;100.00;101795.47;4941557;28;20051;-85
2021/09/28 05:19:00;;;;;;;18.25;8.77;;;;;;;10.23;100.00;101792.91;4943861;28;20596;-85
2021/09/28 05:21:26;;;;;;;16.27;7.95;;;;;;;10.20;100.00;101793.19;4943578;28;20145;-86
2021/09/28 05:23:51;;;;;;;17.77;9.52;;;;;;;10.22;100.00;101801.13;4934253;28;20058;-85
2021/09/28 05:26:17;;;;;;;20.95;8.65;;;;;;;10.19;100.00;101796.88;4936738;28;20490;-86
2021/09/28 05:28:42;;;;;;;18.83;9.15;;;;;;;10.19;100.00;101796.03;4937022;28;20078;-85
2021/09/28 05:31:08;;;;;;;17.85;8.95;;;;;;;10.19;100.00;101802.25;4935588;28;20048;-86
2021/09/28 05:33:34;;;;;;;17.98;8.77;;;;;;;10.15;100.00;101796.28;4940982;28;20047;-86
2021/09/28 05:36:00;;;;;;;23.25;9.25;;;;;;;10.20;100.00;101805.75;4939749;28;20062;-86
2021/09/28 05:38:26;;;;;;;19.67;8.55;;;;;;;10.12;100.00;101809.97;4936658;28;20051;-86
2021/09/28 05:40:51;;;;;;;20.20;8.57;;;;;;;10.12;100.00;101807.28;4938744;28;20057;-86
2021/09/28 05:43:17;;;;;;;18.15;8.82;;;;;;;10.10;100.00;101809.28;4941115;28;20069;-85
2021/09/28 05:45:42;;;;;;;17.38;8.65;;;;;;;10.10;100.00;101814.63;4942045;28;20486;-88
2021/09/28 05:48:07;;;;;;;17.95;8.30;;;;;;;10.06;100.00;101820.41;4942449;28;20044;-89
2021/09/28 05:50:35;;;;;;;20.13;8.40;;;;;;;10.03;100.00;101818.00;4934457;28;20044;-85
2021/09/28 05:53:06;;;;;;;22.02;8.70;;;;;;;10.07;100.00;101814.03;4940194;28;20051;-87
2021/09/28 05:55:32;;;;;;;19.48;7.88;;;;;;;10.05;100.00;101818.72;4939537;28;20051;-86
2021/09/28 05:57:57;;;;;;;15.80;7.72;;;;;;;10.02;100.00;101819.81;4936122;28;20050;-87
2021/09/28 06:00:22;;;;;;;21.83;9.50;;;;;;;10.05;100.00;101816.88;4916674;29;20067;-85
2021/09/28 06:02:48;;;;;;;22.60;8.63;;;;;;;10.09;100.00;101814.75;4940667;28;20090;-85
2021/09/28 06:05:13;;;;;;;19.10;9.35;;;;;;;10.10;100.00;101820.00;4942214;28;20047;-85
2021/09/28 06:07:39;;;;;;;18.88;8.30;;;;;;;10.09;100.00;101823.66;4922618;28;20173;-86
2021/09/28 06:10:05;;;;;;;18.83;7.90;;;;;;;10.08;100.00;101829.16;4924464;29;20054;-85
2021/09/28 06:12:30;;;;;;;18.90;8.00;;;;;;;10.13;100.00;101819.72;4922986;29;20077;-87
2021/09/28 06:14:56;;;;;;;20.05;7.50;;;;;;;10.03;100.00;101816.16;4923880;29;20055;-85
2021/09/28 06:17:21;;;;;;;17.80;7.28;;;;;;;10.11;100.00;101826.22;4923428;29;20410;-85
2021/09/28 06:19:46;;;;;;;24.40;8.40;;;;;;;10.16;100.00;101818.63;4929359;28;20130;-86
2021/09/28 06:22:12;;;;;;;15.38;7.10;;;;;;;10.09;100.00;101833.53;4943431;28;20241;-85
2021/09/28 06:24:38;;;;;;;18.20;9.15;;;;;;;10.12;100.00;101823.38;4925259;29;20051;-87
2021/09/28 06:27:05;;;;;;;21.42;9.90;;;;;;;10.21;100.00;101827.06;4927020;29;20466;-85
2021/09/28 06:29:32;;;;;;;19.90;7.82;;;;;;;10.23;100.00;101830.47;4927523;29;20062;-85
2021/09/28 06:31:58;;;;;;;18.88;7.63;;;;;;;10.30;100.00;101825.44;4942308;28;20506;-85
2021/09/28 06:34:24;;;;;;;12.65;7.97;;;;;;;10.30;100.00;101825.44;4926435;29;20056;-86
2021/09/28 06:36:49;;;;;;;16.77;8.07;;;;;;;10.31;100.00;101827.16;4908453;29;20151;-87
2021/09/28 06:39:15;;;;;;;17.63;9.25;;;;;;;10.35;100.00;101829.41;4928917;29;20060;-85
2021/09/28 06:41:40;;;;;;;17.75;8.40;;;;;;;10.41;100.00;101835.22;4927701;29;23330;-85
2021/09/28 06:44:06;;;;;;;15.63;7.63;;;;;;;10.43;100.00;101831.41;4944477;28;20134;-86
2021/09/28 06:46:35;;;;;;;18.50;9.63;;;;;;;10.50;100.00;101835.25;4927214;29;20048;-85
2021/09/28 06:49:00;;;;;;;17.08;13.40;;;;;;;10.55;100.00;101834.81;4924796;29;20056;-86
2021/09/28 06:51:26;;;;;;;22.88;14.95;;;;;;;10.60;100.00;101836.09;4928947;29;20415;-86
2021/09/28 06:53:52;;;;;;;17.67;12.77;;;;;;;10.65;100.00;101835.69;4929515;29;20048;-85
2021/09/28 06:56:18;;;;;;;21.40;13.98;;;;;;;10.71;100.00;101834.28;4926946;29;20510;-86
2021/09/28 06:58:45;;;;;;;23.52;13.02;;;;;;;10.77;100.00;101833.72;4927138;29;20142;-85
2021/09/28 07:01:11;;;;;;;21.65;12.23;;;;;;;10.82;100.00;101831.47;4921667;28;20048;-86
2021/09/28 07:03:36;;;;;;;22.98;13.55;;;;;;;10.90;100.00;101839.66;4924745;28;20071;-85
2021/09/28 07:06:02;;;;;;;24.65;14.10;;;;;;;10.97;100.00;101832.75;4927358;29;20236;-85
2021/09/28 07:08:28;;;;;;;16.60;9.95;;;;;;;10.99;100.00;101830.78;4925937;29;20055;-86
2021/09/28 07:10:53;;;;;;;17.33;11.25;;;;;;;11.06;100.00;101836.41;4927735;29;20060;-85
2021/09/28 07:13:19;;;;;;;17.00;8.20;;;;;;;11.13;100.00;101834.00;4925857;29;20052;-86
2021/09/28 07:15:45;;;;;;;10.90;6.13;;;;;;;11.17;100.00;101836.28;4909926;29;20052;-86
2021/09/28 07:18:11;;;;;;;19.45;6.68;;;;;;;11.25;100.00;101833.72;4927522;28;20078;-85
2021/09/28 07:20:37;;;;;;;15.43;5.30;;;;;;;11.32;100.00;101843.88;4940051;28;20052;-86
2021/09/28 07:23:03;;;;;;;13.88;5.80;;;;;;;11.39;100.00;101848.53;4929843;29;20062;-85
2021/09/28 07:25:29;;;;;;;11.30;4.72;;;;;;;11.40;100.00;101842.19;4926806;29;20047;-86
2021/09/28 07:28:00;;;;;;;12.30;4.95;;;;;;;11.45;100.00;101839.91;4926250;29;20557;-86
2021/09/28 07:30:28;;;;;;;15.23;4.90;;;;;;;11.51;100.00;101852.78;4908238;28;20044;-85
2021/09/28 07:32:54;;;;;;;9.77;4.20;;;;;;;11.56;100.00;101846.09;4909715;29;20138;-86
2021/09/28 07:35:19;;;;;;;13.73;4.30;;;;;;;11.58;100.00;101850.34;4928763;29;20047;-85
2021/09/28 07:37:45;;;;;;;15.52;4.90;;;;;;;11.62;100.00;101856.28;4923584;29;20040;-86
2021/09/28 07:40:12;;;;;;;12.63;4.32;;;;;;;11.64;100.00;101848.91;4926386;29;20040;-85
2021/09/28 07:42:38;;;;;;;13.70;4.82;;;;;;;11.71;100.00;101853.56;4927113;29;20184;-85
2021/09/28 07:45:04;;;;;;;13.43;4.18;;;;;;;11.77;100.00;101862.91;4945107;28;20141;-87
2021/09/28 07:47:30;;;;;;;12.48;4.22;;;;;;;11.81;100.00;101858.91;4942593;28;20051;-87
2021/09/28 07:49:56;;;;;;;16.52;4.25;;;;;;;11.87;100.00;101855.66;4945720;28;20078;-86
2021/09/28 07:52:22;;;;;;;15.15;4.45;;;;;;;11.91;100.00;101859.78;4946573;28;20078;-85
2021/09/28 07:54:47;;;;;;;13.55;5.00;;;;;;;12.01;100.00;101861.56;4946504;28;20074;-85
2021/09/28 07:57:12;;;;;;;13.82;4.07;;;;;;;12.05;100.00;101860.28;4946391;28;20549;-85
2021/09/28 07:59:38;;;;;;;16.23;4.18;;;;;;;12.16;100.00;101858.22;4945610;28;20118;-87
2021/09/28 08:02:05;;;;;;;13.15;4.25;;;;;;;12.19;100.00;101859.78;4942330;28;20059;-84
2021/09/28 08:04:31;;;;;;;12.05;3.75;;;;;;;12.23;100.00;101852.25;4943887;28;20055;-86
2021/09/28 08:06:56;;;;;;;14.13;4.25;;;;;;;12.26;100.00;101850.13;4925600;29;20051;-85
2021/09/28 08:09:22;;;;;;;12.52;4.00;;;;;;;12.32;100.00;101849.53;4935188;28;20052;-85
2021/09/28 08:11:48;;;;;;;11.55;3.78;;;;;;;12.45;100.00;101853.69;4942246;28;20090;-87
2021/09/28 08:14:14;;;;;;;12.88;3.75;;;;;;;12.50;100.00;101856.78;4933305;28;20055;-86
2021/09/28 08:16:39;;;;;;;12.57;3.70;;;;;;;12.57;100.00;101852.50;4943258;28;20051;-86
2021/09/28 08:19:05;;;;;;;10.30;3.58;;;;;;;12.65;100.00;101852.59;4947339;28;20048;-86
2021/09/28 08:21:31;;;;;;;12.85;3.60;;;;;;;12.70;100.00;101860.22;4940869;28;20051;-87
2021/09/28 08:23:57;;;;;;;10.55;3.67;;;;;;;12.72;100.00;101853.69;4925104;28;20047;-86
2021/09/28 08:29:10;;;;;;;10.18;4.75;;;;;;;12.85;100.00;101862.22;4939986;28;20079;-87
2021/09/28 08:31:39;;;;;;;8.23;2.97;;;;;;;12.97;100.00;101859.28;4940182;28;20054;-86
2021/09/28 08:34:05;;;;;;;17.10;4.13;;;;;;;13.02;100.00;101854.28;4944473;28;20062;-86
2021/09/28 08:36:31;;;;;;;12.23;3.63;;;;;;;13.06;99.60;101852.97;4937676;28;20051;-87
2021/09/28 08:38:57;;;;;;;10.30;3.38;;;;;;;13.12;99.50;101862.28;4932946;28;20055;-86
2021/09/28 08:41:22;;;;;;;10.60;4.15;;;;;;;13.17;98.79;101847.34;4940521;28;20055;-86
2021/09/28 08:43:49;;;;;;;13.20;4.05;;;;;;;13.26;99.07;101851.84;4940886;28;20487;-86
2021/09/28 08:46:17;;;;;;;10.93;3.53;;;;;;;13.30;97.96;101849.69;4938568;28;20557;-86
2021/09/28 08:48:43;;;;;;;15.90;3.30;;;;;;;13.43;98.64;101855.50;4944590;28;20161;-87
2021/09/28 08:51:10;;;;;;;10.95;3.58;;;;;;;13.57;98.39;101850.56;4933746;28;20108;-87
2021/09/28 08:53:36;;;;;;;14.95;4.55;;;;;;;13.63;97.62;101852.63;4933187;28;20359;-87
2021/09/28 08:56:06;;;;;;;13.90;3.20;;;;;;;13.70;96.93;101853.69;4936585;28;20051;-86
2021/09/28 08:58:32;;;;;;;12.90;3.50;;;;;;;13.81;97.21;101857.94;4935981;28;20061;-87
2021/09/28 09:01:06;;;;;;;12.75;3.95;;;;;;;13.87;95.32;101851.94;4944499;28;20051;-86
2021/09/28 09:03:35;;;;;;;9.88;2.60;;;;;;;13.96;95.17;101859.91;4942887;28;20047;-86
2021/09/28 09:06:02;;;;;;;;;;;;;;;14.05;95.38;101855.41;4928054;28;20110;-86
2021/09/28 09:08:30;;;;;;;11.88;2.92;;;;;;;14.05;94.88;101851.84;4936786;28;19929;-87
2021/09/28 09:11:16;;;;;;;15.43;3.53;;;;;;;14.19;96.06;101849.38;4942164;28;20422;-85
2021/09/28 09:13:44;;;;;;;12.88;2.63;;;;;;;14.27;94.21;101853.97;4937580;28;20130;-86
2021/09/28 09:16:13;;;;;;;10.00;2.50;;;;;;;14.30;93.61;101859.06;4946092;28;20059;-87
2021/09/28 09:18:40;;;;;;;9.93;3.17;;;;;;;14.34;93.54;101849.59;4943844;28;20302;-86
2021/09/28 09:21:08;;;;;;;14.43;2.58;;;;;;;14.40;93.23;101859.75;4943286;28;20086;-88
2021/09/28 09:23:38;;;;;;;10.10;2.80;;;;;;;14.47;92.85;101851.84;4945326;28;20058;-86
2021/09/28 09:26:11;;;;;;;11.73;2.55;;;;;;;14.50;93.20;101856.94;4945410;28;20074;-86
2021/09/28 09:28:43;;;;;;;8.25;2.53;;;;;;;14.56;92.30;101853.59;4943709;28;20051;-86
2021/09/28 09:31:29;;;;;;;9.13;3.15;;;;;;;14.60;92.36;101844.16;4940450;28;20047;-87
2021/09/28 09:34:14;;;;;;;8.85;2.70;;;;;;;14.55;92.08;101846.50;4925365;29;20070;-86
2021/09/28 09:36:40;;;;;;;11.07;2.88;;;;;;;14.68;93.04;101847.91;4930088;28;20044;-86
2021/09/28 09:39:09;;;;;;;10.23;2.72;;;;;;;14.75;91.52;101833.53;4934764;28;20235;-87
2021/09/28 09:41:36;;;;;;;9.75;2.25;;;;;;;14.78;91.30;101837.75;4935370;28;20087;-87
2021/09/28 09:44:07;;;;;;;13.43;2.90;;;;;;;14.77;90.03;101833.38;4937292;28;20055;-87
2021/09/28 09:46:47;;;;;;;10.25;2.53;;;;;;;14.75;89.05;101827.28;4940897;28;20058;-88
2021/09/28 09:49:16;;;;;;;13.43;2.80;;;;;;;14.79;90.28;101831.38;4946371;28;20051;-88
2021/09/28 09:51:50;;;;;;;13.25;3.22;;;;;;;14.97;91.16;101829.34;4934811;28;20059;-86
2021/09/28 09:54:17;;;;;;;8.93;2.70;;;;;;;14.93;89.21;101822.56;4940256;28;20482;-88
2021/09/28 09:56:51;;;;;;;8.85;2.80;;;;;;;14.91;90.75;101824.63;4939917;28;20067;-87
2021/09/28 09:59:23;;;;;;;10.10;2.40;;;;;;;15.09;90.28;101822.59;4941126;28;20062;-88
2021/09/28 10:01:49;;;;;;;11.88;2.70;;;;;;;15.18;88.81;101815.31;4921953;28;20039;-87
2021/09/28 10:04:18;;;;;;;11.45;2.67;;;;;;;15.21;88.13;101819.53;4922992;28;20048;-88
2021/09/28 10:06:43;;;;;;;9.45;2.50;;;;;;;15.22;88.46;101803.16;4920537;28;20063;-87
2021/09/28 10:09:19;;;;;;;7.85;2.13;;;;;;;15.27;88.28;101814.28;4921257;28;20062;-88
2021/09/28 10:11:45;;;;;;;12.00;2.63;;;;;;;15.33;88.89;101816.34;4938949;28;20050;-88
2021/09/28 10:14:37;;;;;;;14.70;2.42;;;;;;;15.48;87.61;101815.66;4934686;28;20130;-88
2021/09/28 10:17:26;;;;;;;15.20;2.55;;;;;;;15.53;85.79;101815.97;4949896;28;20066;-87
2021/09/28 10:19:55;;;;;;;;;;;;;;;15.64;86.88;101809.34;4936805;28;20111;-88
2021/09/28 10:22:39;;;;;;;11.07;2.00;;;;;;;15.70;85.60;101812.22;4909077;29;19918;-88
2021/09/28 10:25:24;;;;;;;10.45;2.53;;;;;;;15.70;85.20;101816.78;4921097;29;20127;-88
2021/09/28 10:27:54;;;;;;;10.70;1.95;;;;;;;15.73;85.16;101809.16;4924009;29;20146;-88
2021/09/28 10:30:35;;;;;;;9.98;2.30;;;;;;;15.82;85.08;101811.84;4911103;29;20074;-88
2021/09/28 10:33:01;;;;;;;11.57;2.10;;;;;;;15.90;85.58;101804.56;4946142;28;20079;-88
2021/09/28 10:35:28;;;;;;;14.23;2.20;;;;;;;16.08;84.92;101808.88;4942863;29;20303;-88
2021/09/28 10:37:59;;;;;;;10.25;3.03;;;;;;;16.07;82.11;101804.50;4938159;28;20059;-88
2021/09/28 10:40:31;;;;;;;13.77;2.50;;;;;;;16.11;83.06;101813.94;4946874;28;20059;-87
2021/09/28 10:43:03;;;;;;;11.02;2.30;;;;;;;16.20;84.28;101807.50;4941799;29;20154;-89
2021/09/28 10:45:28;;;;;;;13.20;2.00;;;;;;;16.24;83.32;101801.53;4963159;28;20049;-88
2021/09/28 10:48:06;;;;;;;11.43;2.70;;;;;;;16.28;80.98;101802.00;4947577;28;20577;-88
2021/09/28 10:50:35;;;;;;;13.68;1.80;;;;;;;16.30;81.43;101807.25;4922613;28;20110;-88
2021/09/28 10:53:19;;;;;;;9.60;2.40;;;;;;;16.27;81.43;101805.75;4948126;28;20062;-88
2021/09/28 10:56:01;;;;;;;11.18;2.03;;;;;;;16.30;81.04;101799.97;4935770;28;20300;-89
2021/09/28 10:58:28;;;;;;;8.93;1.83;;;;;;;16.33;79.42;101798.78;4954254;28;20055;-88
2021/09/28 11:00:54;;;;;;;11.05;1.98;;;;;;;16.40;81.55;101795.19;4973592;28;20059;-88
2021/09/28 11:03:42;;;;;;;8.82;1.92;;;;;;;16.54;80.07;101795.44;4942967;28;20055;-88
2021/09/28 11:06:09;;;;;;;9.40;1.88;;;;;;;16.54;80.20;101796.28;4921025;29;20083;-88
2021/09/28 11:08:36;;;;;;;10.02;2.03;;;;;;;16.53;77.28;101799.19;4956336;28;20127;-88
2021/09/28 11:11:07;;;;;;;10.95;2.08;;;;;;;16.51;77.75;101796.63;4947347;28;20046;-88